Date,TemperatureHighF,TemperatureAvgF,TemperatureLowF,DewpointHighF,DewpointAvgF,DewpointLowF,HumidityHigh,HumidityAvg,HumidityLow,PressureMaxIn,PressureMinIn,WindSpeedMaxMPH,WindSpeedAvgMPH,GustSpeedMaxMPH,PrecipitationSumIn
2014-1-1,62.9,52.9,43.9,45.8,39.9,32.0,86,64,35,30.20,30.11,6,0,7,0.00
2014-1-2,63.5,54.7,47.0,40.6,38.1,35.5,69,54,39,30.16,30.03,6,0,6,0.00
2014-1-3,63.6,55.1,48.2,45.4,39.8,35.6,85,57,41,30.05,29.93,15,1,17,0.00
2014-1-4,63.3,54.6,45.6,46.9,39.1,28.1,87,59,35,30.06,29.95,14,0,17,0.00
2014-1-5,63.8,56.6,49.6,38.7,30.2,18.5,54,37,24,30.18,30.05,9,0,11,0.00
2014-1-6,58.7,54.0,48.1,41.5,38.6,34.3,68,56,42,30.25,30.14,11,0,11,0.00
2014-1-7,59.1,52.5,47.4,48.4,42.7,35.5,86,70,54,30.19,30.11,14,2,15,0.00
2014-1-8,52.7,49.9,48.3,45.6,43.2,41.4,84,77,76,30.21,30.14,16,4,17,0.01
2014-1-9,54.4,50.6,48.2,49.8,43.4,40.2,86,76,65,30.25,30.16,20,4,23,0.00
2014-1-10,61.3,52.5,47.6,50.8,46.1,40.4,86,79,62,30.29,30.16,14,2,15,0.00
2014-1-11,52.1,49.9,46.3,46.5,42.9,39.4,86,77,73,30.28,30.14,17,1,17,0.05
2014-1-12,57.2,52.5,46.9,45.6,41.8,39.2,86,67,53,30.39,30.25,11,3,12,0.01
2014-1-13,64.5,58.1,52.6,41.8,40.0,36.4,61,52,36,30.45,30.32,13,0,13,0.00
2014-1-14,66.5,60.4,56.1,39.9,37.4,32.7,53,43,29,30.43,30.29,13,0,13,0.00
2014-1-15,70.4,54.7,0.0,38.3,30.1,0.0,42,30,23,30.32,30.17,9,0,14,0.00
2014-1-16,70.0,65.0,56.6,36.6,32.3,28.0,46,30,21,30.20,30.11,9,1,13,0.00
2014-1-17,67.5,59.3,51.5,43.0,37.4,30.2,64,45,27,30.16,30.08,2,0,5,0.00
2014-1-18,69.1,57.1,49.0,42.8,35.8,31.0,67,46,27,30.16,30.04,4,0,5,0.00
2014-1-19,66.5,56.1,48.0,40.5,37.6,33.2,68,50,37,30.12,30.03,6,0,6,0.00
2014-1-20,68.4,57.0,48.2,42.7,36.1,29.6,71,47,30,30.21,30.08,10,0,10,0.00
2014-1-21,66.4,57.5,47.9,37.7,32.9,28.3,61,41,27,30.24,30.14,9,0,10,0.00
2014-1-22,69.9,55.9,49.9,46.9,40.3,30.2,85,57,34,30.15,29.89,17,2,18,0.00
2014-1-23,65.6,56.8,48.2,46.0,36.8,28.5,85,51,26,29.99,29.86,13,1,15,0.00
2014-1-24,64.1,56.5,49.1,48.7,43.5,36.6,82,63,37,30.25,29.98,12,1,13,0.00
2014-1-25,70.3,59.1,49.2,48.8,40.6,31.6,86,54,31,30.25,30.10,10,0,12,0.00
2014-1-26,69.5,56.0,46.5,49.4,42.4,34.2,86,62,32,30.11,30.00,25,4,25,0.00
2014-1-27,57.9,49.9,45.5,50.4,43.8,39.0,86,79,76,30.18,30.05,17,3,20,0.00
2014-1-28,63.7,54.9,50.2,58.0,47.4,42.8,85,76,71,30.25,30.17,15,2,16,0.00
2014-1-29,56.9,53.7,51.1,48.0,45.3,42.5,86,73,71,30.19,29.97,11,2,14,0.02
2014-1-30,53.8,50.6,48.8,49.7,45.9,42.8,86,84,76,29.98,29.84,19,4,22,0.04
2014-1-31,57.2,50.1,46.0,47.3,41.6,36.4,86,73,51,30.07,29.89,18,3,25,0.00
2014-2-1,57.4,47.8,42.1,42.7,39.7,33.7,85,74,44,30.15,30.05,15,2,17,0.00
2014-2-2,47.2,45.0,42.7,42.7,40.2,36.6,89,83,77,30.05,29.83,28,5,31,0.18
2014-2-3,53.4,46.2,40.4,45.0,40.1,34.7,86,79,67,30.07,29.97,17,2,19,0.00
2014-2-4,51.6,45.8,41.4,43.3,39.7,37.3,86,79,64,30.16,30.06,17,2,19,0.00
2014-2-5,51.6,46.1,41.7,42.9,40.1,37.6,86,80,66,30.19,30.03,17,1,19,0.09
2014-2-6,49.4,47.0,44.3,41.9,39.1,36.9,76,74,72,30.03,29.88,21,3,23,0.50
2014-2-7,53.3,50.7,48.7,46.8,43.3,40.5,83,76,72,30.07,29.97,22,4,26,0.35
2014-2-8,55.9,54.1,51.1,46.7,44.3,41.7,78,69,68,30.13,30.02,21,5,23,1.02
2014-2-9,55.9,55.2,53.1,45.5,44.8,42.8,69,68,67,30.13,30.04,17,4,18,1.37
2014-2-10,54.7,51.5,49.6,44.7,41.8,39.9,72,69,68,30.26,30.09,18,4,20,0.12
2014-2-11,57.4,49.0,46.9,52.6,40.6,37.6,87,73,68,30.25,30.15,19,4,21,0.00
2014-2-12,57.7,50.7,45.9,52.4,43.3,37.0,86,76,69,30.26,30.16,15,3,17,0.00
2014-2-13,66.3,56.9,50.4,59.6,48.9,40.6,86,75,65,30.21,30.08,18,5,20,0.01
2014-2-14,59.4,54.9,52.3,55.1,47.4,41.7,87,76,65,30.16,30.03,18,3,18,0.02
2014-2-15,56.7,53.5,51.3,52.2,46.1,42.4,85,76,67,30.04,29.97,13,1,15,0.05
2014-2-16,61.1,53.3,46.3,49.6,43.8,38.6,86,71,51,30.20,30.02,13,1,14,0.02
2014-2-17,59.0,51.2,45.8,48.8,44.8,40.0,85,79,55,30.17,30.07,15,2,17,0.00
2014-2-18,60.0,52.4,47.7,52.2,46.6,40.8,85,81,68,30.18,30.08,21,3,21,0.00
2014-2-19,58.7,53.1,49.0,49.6,44.7,41.1,85,73,62,30.19,30.08,18,4,20,0.01
2014-2-20,66.2,53.9,45.8,46.8,42.5,38.5,86,68,38,30.21,30.09,17,2,17,0.00
2014-2-21,70.2,55.5,49.0,50.9,45.4,40.0,84,70,38,30.10,29.96,21,4,24,0.00
2014-2-22,66.0,51.9,47.4,53.6,44.4,38.1,84,76,62,30.01,29.91,25,6,27,0.00
2014-2-23,63.8,50.3,47.1,52.7,42.3,37.9,84,74,66,30.01,29.94,16,2,21,0.00
2014-2-24,71.3,55.2,48.3,52.2,45.9,38.7,84,72,48,29.99,29.89,23,5,25,0.00
2014-2-25,57.2,51.0,47.1,50.9,44.2,37.5,85,78,69,29.97,29.89,23,4,25,0.00
2014-2-26,55.7,53.7,51.2,49.2,45.4,42.6,85,74,66,29.94,29.66,33,8,38,0.80
2014-2-27,61.0,56.5,52.0,53.6,48.0,41.9,84,73,65,29.89,29.49,18,2,19,0.04
2014-2-28,57.9,53.7,51.7,52.5,46.6,41.4,84,77,66,29.49,29.35,33,8,36,0.75
2014-3-1,61.9,55.5,51.6,53.6,49.0,44.6,84,79,67,29.80,29.45,25,5,28,0.08
2014-3-2,56.4,53.4,51.4,51.6,45.9,42.0,84,76,67,30.15,29.79,14,2,17,0.06
2014-3-3,57.8,53.6,51.0,51.8,47.4,41.9,84,80,68,30.14,30.00,25,2,25,0.21
2014-3-4,61.1,54.7,50.9,55.8,46.6,41.1,85,74,67,30.10,30.03,14,2,15,0.05
2014-3-5,64.7,58.0,52.9,57.2,49.6,43.5,84,74,67,30.09,29.97,14,2,15,0.33
2014-3-6,60.7,55.0,51.2,54.8,47.3,41.0,85,76,66,30.18,30.02,10,2,15,0.02
2014-3-7,62.2,54.4,49.9,50.8,46.6,42.6,85,75,56,30.17,30.08,20,5,21,0.00
2014-3-8,70.8,58.8,48.7,54.5,47.2,39.7,84,66,45,30.19,30.09,14,2,14,0.01
2014-3-9,69.3,60.6,55.1,55.5,50.6,44.0,83,70,50,30.16,30.05,18,2,18,0.00
2014-3-10,66.1,57.4,51.3,51.7,47.2,42.2,84,69,49,30.22,30.07,15,2,15,0.06
2014-3-11,69.0,60.1,53.4,48.4,34.7,29.0,76,40,26,30.18,30.00,13,1,15,0.00
2014-3-12,72.1,63.6,56.4,37.4,30.9,25.4,36,29,25,30.08,29.97,13,3,22,0.00
2014-3-13,74.2,60.5,50.5,50.4,40.2,27.4,83,52,20,30.04,29.95,29,8,29,0.00
2014-3-14,63.7,54.6,50.3,52.9,47.4,42.4,82,77,65,30.21,30.02,24,7,24,0.00
2014-3-15,76.2,59.2,51.7,55.5,49.2,43.7,83,71,41,30.30,30.20,21,4,23,0.00
2014-3-16,73.2,55.5,49.4,55.2,47.5,41.7,83,75,46,30.29,30.17,28,6,29,0.00
2014-3-17,64.5,54.0,48.9,50.4,45.6,41.1,83,74,53,30.20,29.96,25,6,31,0.00
2014-3-18,70.3,58.4,49.7,47.5,36.3,26.7,82,46,25,29.97,29.88,18,2,20,0.00
2014-3-19,72.5,59.4,49.8,48.9,40.5,27.1,82,52,28,30.06,29.94,16,1,18,0.00
2014-3-20,65.2,55.1,47.9,53.1,45.5,36.0,83,71,43,30.03,29.91,28,8,28,0.00
2014-3-21,57.3,50.3,47.5,48.4,44.2,40.4,83,79,71,29.99,29.92,24,5,26,0.00
2014-3-22,59.9,51.3,46.4,50.4,45.4,40.9,83,80,67,30.08,29.96,24,6,25,0.00
2014-3-23,60.2,51.2,46.7,49.6,45.0,40.7,83,79,68,30.16,30.06,24,9,25,0.00
2014-3-24,66.3,53.4,47.5,50.7,44.6,32.9,83,73,40,30.14,30.00,27,6,27,0.00
2014-3-25,57.3,52.2,48.0,51.5,44.8,41.3,83,76,70,30.03,29.84,14,2,20,0.13
2014-3-26,55.9,52.4,48.4,50.7,44.8,40.5,83,75,69,29.96,29.77,17,1,19,0.54
2014-3-27,60.0,54.9,51.4,51.1,47.2,43.5,82,75,64,30.12,29.95,15,1,15,0.00
2014-3-28,66.0,56.9,52.3,53.6,49.1,43.7,82,75,60,30.18,30.08,16,2,18,0.00
2014-3-29,56.1,53.3,49.4,50.7,45.2,41.0,82,74,68,30.11,29.99,14,2,19,0.79
2014-3-30,56.6,51.2,47.7,49.3,45.2,42.5,83,80,69,30.12,30.01,14,2,18,0.00
2014-3-31,72.3,48.5,45.0,52.2,42.3,37.6,83,79,48,30.05,29.81,22,2,27,0.70
2014-4-1,53.8,47.1,44.2,46.9,40.3,36.5,83,77,70,29.94,29.83,14,2,19,0.45
2014-4-2,59.0,49.6,43.5,47.3,42.1,35.4,84,75,55,30.10,29.86,15,2,17,0.46
2014-4-3,58.8,51.9,46.9,48.9,45.1,40.8,82,78,65,30.12,30.03,15,2,17,0.00
2014-4-4,57.0,50.9,46.9,49.5,44.3,38.7,83,78,71,30.05,29.97,15,3,22,0.39
2014-4-5,60.6,53.2,46.6,51.4,46.3,41.0,82,78,65,30.18,30.05,17,5,24,0.00
2014-4-6,73.2,59.7,49.5,53.4,49.2,43.7,82,70,42,30.23,30.09,18,3,23,0.00
2014-4-7,80.2,67.8,57.9,54.9,52.0,49.5,81,59,37,30.14,30.04,13,2,19,0.00
2014-4-8,77.4,63.1,51.4,58.6,52.1,43.7,82,68,50,30.10,30.01,18,4,21,0.00
2014-4-9,56.5,50.7,47.8,51.1,43.3,39.2,84,76,70,30.09,29.97,25,8,27,0.00
2014-4-10,71.2,53.3,47.7,56.7,44.5,39.0,84,72,60,30.04,29.88,24,5,29,0.00
2014-4-11,56.7,51.2,48.6,51.6,44.4,39.6,85,78,70,29.95,29.84,23,7,30,0.01
2014-4-12,58.8,53.2,50.5,50.5,48.1,45.1,85,83,73,29.95,29.86,18,2,29,0.00
2014-4-13,61.9,52.8,49.8,52.3,46.9,41.2,85,80,69,30.04,29.94,25,6,28,0.00
2014-4-14,65.7,53.2,49.6,55.2,45.4,40.8,84,75,67,30.11,30.01,29,10,30,0.00
2014-4-15,58.3,53.6,49.8,52.2,48.0,40.8,84,81,71,30.06,29.89,27,11,30,0.00
2014-4-16,69.1,56.1,48.6,54.1,47.7,41.7,82,74,58,29.93,29.81,24,8,26,0.00
2014-4-17,57.9,54.2,49.6,52.0,47.8,41.2,83,79,69,29.87,29.80,23,10,29,0.00
2014-4-18,58.6,51.5,48.4,51.8,45.8,40.6,83,81,74,29.94,29.86,31,10,31,0.00
2014-4-19,56.5,50.9,47.8,51.1,43.9,40.1,85,77,70,30.12,29.94,21,9,27,0.00
2014-4-20,76.6,56.8,48.4,54.9,45.5,39.2,84,67,35,30.15,30.04,25,7,30,0.01
2014-4-21,61.3,52.2,48.0,50.0,45.7,37.4,84,79,42,30.07,29.96,26,7,28,0.00
2014-4-22,55.8,50.7,46.8,46.6,43.2,38.8,83,76,62,30.12,29.97,19,6,26,0.04
2014-4-23,60.4,53.6,47.5,49.1,44.1,37.9,83,71,49,30.15,30.07,19,5,25,0.00
2014-4-24,58.6,54.0,50.7,53.2,46.3,41.7,83,75,68,30.12,29.98,16,3,18,0.01
2014-4-25,54.1,50.7,47.5,46.4,42.6,39.2,83,74,68,29.98,29.79,18,2,22,0.26
2014-4-26,56.1,50.4,45.5,46.4,43.4,40.6,84,77,59,30.09,29.85,18,4,23,0.00
2014-4-27,57.6,52.4,48.6,52.5,45.8,39.2,84,78,68,30.13,30.02,15,3,23,0.04
2014-4-28,66.4,58.0,48.4,51.6,45.4,38.7,83,64,44,30.23,30.12,16,5,20,0.00
2014-4-29,83.7,69.0,54.1,49.5,45.1,39.9,70,45,27,30.19,30.03,15,2,17,0.00
2014-4-30,87.4,73.9,62.4,52.2,47.5,38.1,69,41,27,30.06,29.98,13,2,15,0.00
2014-5-1,86.9,72.2,64.4,53.8,44.6,37.0,63,38,23,30.08,30.00,19,5,23,0.00
2014-5-2,67.6,55.8,50.7,52.0,47.8,42.3,85,75,41,30.07,29.99,24,10,29,0.00
2014-5-3,60.4,53.6,49.6,52.9,47.0,41.7,85,78,73,30.05,29.99,22,8,26,0.00
2014-5-4,61.2,55.8,52.3,54.7,48.8,43.9,83,77,73,30.06,30.00,15,3,21,0.00
2014-5-5,60.1,54.5,50.5,52.7,47.4,43.3,84,77,70,30.05,29.94,16,4,28,0.00
2014-5-6,62.4,53.7,48.0,49.8,45.9,43.2,84,76,55,29.95,29.86,20,6,27,0.00
2014-5-7,61.0,52.4,47.1,49.8,46.1,41.5,84,79,60,29.99,29.88,19,7,28,0.00
2014-5-8,60.4,54.6,49.5,54.9,47.9,42.3,83,78,70,30.09,29.98,21,4,26,0.06
2014-5-9,59.0,53.8,50.4,52.9,46.4,41.7,84,76,69,30.16,30.08,22,7,33,0.06
2014-5-10,62.1,54.6,49.3,48.4,45.8,42.6,84,73,53,30.14,30.02,20,6,30,0.00
2014-5-11,73.4,60.6,51.4,47.3,42.2,37.8,83,53,29,30.11,30.00,22,5,23,0.00
2014-5-12,81.5,67.0,53.6,51.4,43.4,31.1,83,46,22,30.11,30.03,17,4,22,0.00
2014-5-13,89.2,73.3,63.1,51.8,43.4,33.1,60,36,18,30.12,30.04,18,3,20,0.00
2014-5-14,90.7,75.3,65.1,53.8,43.0,32.0,57,33,21,30.12,30.02,16,4,18,0.00
2014-5-15,81.0,68.6,52.3,49.8,43.0,32.5,86,42,24,30.08,30.02,21,7,25,0.00
2014-5-16,61.0,54.6,50.2,53.2,48.6,43.7,86,80,71,30.07,29.96,27,13,29,0.00
2014-5-17,57.4,53.3,50.4,52.3,47.2,42.8,84,80,74,30.00,29.94,27,14,33,0.00
2014-5-18,60.3,54.9,51.1,54.1,49.2,45.5,84,81,74,29.99,29.93,19,8,26,0.00
2014-5-19,61.7,54.5,50.5,54.5,48.5,43.7,83,80,75,29.97,29.92,17,6,24,0.00
2014-5-20,61.5,54.7,50.9,53.6,47.7,43.5,83,77,71,30.01,29.92,19,6,26,0.00
2014-5-21,59.0,53.5,50.4,53.2,46.9,42.4,83,78,74,29.97,29.91,27,9,30,0.00
2014-5-22,59.0,52.5,48.6,53.1,45.0,39.9,83,76,72,30.03,29.91,25,7,31,0.00
2014-5-23,56.1,52.3,48.7,51.1,44.8,40.3,83,76,71,30.03,29.92,27,10,33,0.01
2014-5-24,56.1,52.3,49.6,51.1,45.4,41.0,83,77,71,30.00,29.91,28,16,35,0.00
2014-5-25,55.4,50.0,49.5,50.0,42.3,41.5,82,75,74,29.96,29.93,18,6,24,0.00